sensor_id;sensor_type;location;lat;lon;timestamp;P1;P2;P0
27143;PMS1003;14672;50.250;8.312;2023-01-31T00:03:46;15.25;11.25;2.00
27143;PMS1003;14672;50.250;8.312;2023-01-31T00:06:14;11.25;10.25;1.75
27143;PMS1003;14672;50.250;8.312;2023-01-31T00:08:42;9.50;9.50;1.75
27143;PMS1003;14672;50.250;8.312;2023-01-31T00:11:10;11.00;10.00;2.50
27143;PMS1003;14672;50.250;8.312;2023-01-31T00:13:37;11.25;9.75;1.75
27143;PMS1003;14672;50.250;8.312;2023-01-31T00:16:04;12.25;10.75;1.75
27143;PMS1003;14672;50.250;8.312;2023-01-31T00:18:31;12.75;11.25;0.50
27143;PMS1003;14672;50.250;8.312;2023-01-31T00:20:57;9.00;8.00;2.00
27143;PMS1003;14672;50.250;8.312;2023-01-31T00:23:38;8.50;8.00;2.00
27143;PMS1003;14672;50.250;8.312;2023-01-31T00:26:06;9.00;7.00;2.00
27143;PMS1003;14672;50.250;8.312;2023-01-31T00:28:50;11.50;10.00;2.00
27143;PMS1003;14672;50.250;8.312;2023-01-31T00:31:18;11.50;8.00;0.00
27143;PMS1003;14672;50.250;8.312;2023-01-31T00:33:46;12.25;10.00;1.50
27143;PMS1003;14672;50.250;8.312;2023-01-31T00:36:17;8.25;8.25;2.75
27143;PMS1003;14672;50.250;8.312;2023-01-31T00:38:56;12.00;10.00;4.00
27143;PMS1003;14672;50.250;8.312;2023-01-31T00:41:27;10.00;8.50;2.00
27143;PMS1003;14672;50.250;8.312;2023-01-31T00:43:54;13.00;10.50;2.00
27143;PMS1003;14672;50.250;8.312;2023-01-31T00:46:20;7.75;7.75;1.75
27143;PMS1003;14672;50.250;8.312;2023-01-31T00:48:50;11.00;9.75;1.75
27143;PMS1003;14672;50.250;8.312;2023-01-31T00:51:17;10.50;8.00;2.00
27143;PMS1003;14672;50.250;8.312;2023-01-31T00:53:44;6.50;6.50;0.00
27143;PMS1003;14672;50.250;8.312;2023-01-31T00:56:11;9.50;9.00;2.00
27143;PMS1003;14672;50.250;8.312;2023-01-31T00:58:40;9.00;9.00;1.75
27143;PMS1003;14672;50.250;8.312;2023-01-31T01:01:12;16.50;12.00;2.00
27143;PMS1003;14672;50.250;8.312;2023-01-31T01:03:46;11.50;10.00;4.00
27143;PMS1003;14672;50.250;8.312;2023-01-31T01:06:12;8.50;8.50;2.50
27143;PMS1003;14672;50.250;8.312;2023-01-31T01:08:39;9.00;9.00;4.00
27143;PMS1003;14672;50.250;8.312;2023-01-31T01:11:11;12.25;10.00;2.25
27143;PMS1003;14672;50.250;8.312;2023-01-31T01:13:50;10.00;9.50;2.00
27143;PMS1003;14672;50.250;8.312;2023-01-31T01:16:18;8.75;8.25;1.75
27143;PMS1003;14672;50.250;8.312;2023-01-31T01:18:47;7.50;7.50;1.00
27143;PMS1003;14672;50.250;8.312;2023-01-31T01:21:22;8.00;8.00;2.00
27143;PMS1003;14672;50.250;8.312;2023-01-31T01:23:54;11.50;8.00;2.00
27143;PMS1003;14672;50.250;8.312;2023-01-31T01:26:23;10.00;8.50;2.00
27143;PMS1003;14672;50.250;8.312;2023-01-31T01:28:55;16.00;12.00;2.00
27143;PMS1003;14672;50.250;8.312;2023-01-31T01:31:23;8.50;8.50;1.50
27143;PMS1003;14672;50.250;8.312;2023-01-31T01:33:55;10.50;9.50;2.00
27143;PMS1003;14672;50.250;8.312;2023-01-31T01:36:35;7.00;7.00;2.00
27143;PMS1003;14672;50.250;8.312;2023-01-31T01:39:02;12.00;12.00;3.50
27143;PMS1003;14672;50.250;8.312;2023-01-31T01:41:33;10.00;8.00;0.00
27143;PMS1003;14672;50.250;8.312;2023-01-31T01:43:59;15.25;12.25;1.75
27143;PMS1003;14672;50.250;8.312;2023-01-31T01:49:12;16.00;11.50;1.50
27143;PMS1003;14672;50.250;8.312;2023-01-31T01:52:02;8.50;7.50;0.00
27143;PMS1003;14672;50.250;8.312;2023-01-31T01:54:35;10.50;8.50;0.50
27143;PMS1003;14672;50.250;8.312;2023-01-31T01:57:08;14.00;11.00;2.00
27143;PMS1003;14672;50.250;8.312;2023-01-31T01:59:46;9.00;8.50;2.00
27143;PMS1003;14672;50.250;8.312;2023-01-31T02:02:23;10.50;8.50;2.00
27143;PMS1003;14672;50.250;8.312;2023-01-31T02:04:50;8.50;8.00;2.00
27143;PMS1003;14672;50.250;8.312;2023-01-31T02:07:17;12.50;10.50;2.00
27143;PMS1003;14672;50.250;8.312;2023-01-31T02:09:49;16.50;10.50;2.00
27143;PMS1003;14672;50.250;8.312;2023-01-31T02:12:32;10.00;9.50;2.00
27143;PMS1003;14672;50.250;8.312;2023-01-31T02:14:59;15.50;14.00;4.00
27143;PMS1003;14672;50.250;8.312;2023-01-31T02:17:26;7.50;7.50;2.00
27143;PMS1003;14672;50.250;8.312;2023-01-31T02:20:11;16.67;11.33;2.00
27143;PMS1003;14672;50.250;8.312;2023-01-31T02:23:07;12.50;8.50;2.00
27143;PMS1003;14672;50.250;8.312;2023-01-31T02:29:10;11.50;11.50;2.50
27143;PMS1003;14672;50.250;8.312;2023-01-31T02:35:39;14.00;11.50;2.00
27143;PMS1003;14672;50.250;8.312;2023-01-31T02:44:52;10.50;8.50;2.00
27143;PMS1003;14672;50.250;8.312;2023-01-31T02:54:16;13.50;12.00;3.00
27143;PMS1003;14672;50.250;8.312;2023-01-31T02:57:27;12.50;9.00;2.00
27143;PMS1003;14672;50.250;8.312;2023-01-31T03:00:11;16.50;12.00;4.00
27143;PMS1003;14672;50.250;8.312;2023-01-31T03:02:57;14.50;12.50;2.00
27143;PMS1003;14672;50.250;8.312;2023-01-31T03:05:41;6.50;6.50;2.00
27143;PMS1003;14672;50.250;8.312;2023-01-31T03:08:25;14.50;11.50;4.00
27143;PMS1003;14672;50.250;8.312;2023-01-31T03:11:10;10.00;10.00;1.50
27143;PMS1003;14672;50.250;8.312;2023-01-31T03:20:32;10.00;9.00;2.00
27143;PMS1003;14672;50.250;8.312;2023-01-31T03:23:27;7.50;7.50;2.00
27143;PMS1003;14672;50.250;8.312;2023-01-31T03:25:58;11.50;11.50;4.00
27143;PMS1003;14672;50.250;8.312;2023-01-31T03:28:28;12.50;12.00;3.50
27143;PMS1003;14672;50.250;8.312;2023-01-31T03:33:57;16.50;12.00;2.50
27143;PMS1003;14672;50.250;8.312;2023-01-31T03:36:37;11.50;11.50;2.00
27143;PMS1003;14672;50.250;8.312;2023-01-31T03:39:12;16.00;14.00;4.00
27143;PMS1003;14672;50.250;8.312;2023-01-31T03:42:07;13.00;10.00;2.00
27143;PMS1003;14672;50.250;8.312;2023-01-31T03:45:01;16.00;11.00;2.00
27143;PMS1003;14672;50.250;8.312;2023-01-31T03:47:35;16.00;14.50;4.00
27143;PMS1003;14672;50.250;8.312;2023-01-31T03:50:16;10.00;10.00;2.00
27143;PMS1003;14672;50.250;8.312;2023-01-31T03:53:06;22.00;18.50;2.00
27143;PMS1003;14672;50.250;8.312;2023-01-31T03:55:34;9.50;8.00;0.00
27143;PMS1003;14672;50.250;8.312;2023-01-31T03:58:07;11.50;10.50;4.00
27143;PMS1003;14672;50.250;8.312;2023-01-31T04:00:37;12.00;11.00;2.00
27143;PMS1003;14672;50.250;8.312;2023-01-31T04:03:29;14.00;12.00;4.00
27143;PMS1003;14672;50.250;8.312;2023-01-31T04:06:01;10.50;10.00;2.00
27143;PMS1003;14672;50.250;8.312;2023-01-31T04:08:27;14.00;10.00;2.00
27143;PMS1003;14672;50.250;8.312;2023-01-31T04:10:54;12.50;11.50;2.00
27143;PMS1003;14672;50.250;8.312;2023-01-31T04:13:23;9.00;9.00;2.00
27143;PMS1003;14672;50.250;8.312;2023-01-31T04:15:49;15.33;10.67;2.00
27143;PMS1003;14672;50.250;8.312;2023-01-31T04:18:15;14.67;11.33;2.00
27143;PMS1003;14672;50.250;8.312;2023-01-31T04:20:41;12.00;11.33;2.00
27143;PMS1003;14672;50.250;8.312;2023-01-31T04:23:06;16.00;12.00;4.00
27143;PMS1003;14672;50.250;8.312;2023-01-31T04:25:32;10.67;9.33;2.00
27143;PMS1003;14672;50.250;8.312;2023-01-31T04:27:58;12.00;10.00;2.00
27143;PMS1003;14672;50.250;8.312;2023-01-31T04:30:24;12.67;10.67;2.00
27143;PMS1003;14672;50.250;8.312;2023-01-31T04:32:49;15.33;13.33;3.33
27143;PMS1003;14672;50.250;8.312;2023-01-31T04:35:15;16.67;16.67;6.67
27143;PMS1003;14672;50.250;8.312;2023-01-31T04:37:41;28.00;20.00;8.00
27143;PMS1003;14672;50.250;8.312;2023-01-31T04:40:07;20.00;17.33;8.00
27143;PMS1003;14672;50.250;8.312;2023-01-31T04:42:33;16.00;15.50;6.00
27143;PMS1003;14672;50.250;8.312;2023-01-31T04:44:59;15.33;10.67;2.67
27143;PMS1003;14672;50.250;8.312;2023-01-31T04:47:25;18.67;17.33;4.00
27143;PMS1003;14672;50.250;8.312;2023-01-31T04:49:50;32.00;24.00;10.00
27143;PMS1003;14672;50.250;8.312;2023-01-31T04:52:16;22.67;16.67;4.00
27143;PMS1003;14672;50.250;8.312;2023-01-31T04:54:42;17.33;16.67;5.33
27143;PMS1003;14672;50.250;8.312;2023-01-31T04:57:08;10.67;8.00;2.00
27143;PMS1003;14672;50.250;8.312;2023-01-31T04:59:33;16.67;14.67;4.00
27143;PMS1003;14672;50.250;8.312;2023-01-31T05:01:59;12.00;12.00;4.00
27143;PMS1003;14672;50.250;8.312;2023-01-31T05:04:25;14.67;12.00;4.00
27143;PMS1003;14672;50.250;8.312;2023-01-31T05:06:51;15.33;14.00;2.67
27143;PMS1003;14672;50.250;8.312;2023-01-31T05:09:17;15.50;14.00;4.00
27143;PMS1003;14672;50.250;8.312;2023-01-31T05:11:42;12.00;10.00;4.00
27143;PMS1003;14672;50.250;8.312;2023-01-31T05:14:08;12.00;12.00;3.33
27143;PMS1003;14672;50.250;8.312;2023-01-31T05:16:34;13.33;12.00;2.00
27143;PMS1003;14672;50.250;8.312;2023-01-31T05:19:00;12.67;11.33;2.67
27143;PMS1003;14672;50.250;8.312;2023-01-31T05:21:26;17.50;14.00;4.00
27143;PMS1003;14672;50.250;8.312;2023-01-31T05:23:52;17.33;16.00;6.00
27143;PMS1003;14672;50.250;8.312;2023-01-31T05:26:17;12.00;12.00;6.00
27143;PMS1003;14672;50.250;8.312;2023-01-31T05:28:43;11.33;10.00;1.33
27143;PMS1003;14672;50.250;8.312;2023-01-31T05:31:09;14.00;9.33;2.00
27143;PMS1003;14672;50.250;8.312;2023-01-31T05:33:37;11.00;11.00;2.00
27143;PMS1003;14672;50.250;8.312;2023-01-31T05:36:02;8.00;8.00;2.00
27143;PMS1003;14672;50.250;8.312;2023-01-31T05:38:29;12.00;10.00;2.00
27143;PMS1003;14672;50.250;8.312;2023-01-31T05:40:55;10.67;8.67;2.00
27143;PMS1003;14672;50.250;8.312;2023-01-31T05:43:21;16.67;16.67;4.00
27143;PMS1003;14672;50.250;8.312;2023-01-31T05:45:47;16.00;12.00;4.00
27143;PMS1003;14672;50.250;8.312;2023-01-31T05:48:14;8.00;8.00;1.00
27143;PMS1003;14672;50.250;8.312;2023-01-31T05:50:39;16.00;14.00;4.00
27143;PMS1003;14672;50.250;8.312;2023-01-31T05:53:05;10.67;10.67;4.00
27143;PMS1003;14672;50.250;8.312;2023-01-31T05:55:31;14.00;14.00;6.00
27143;PMS1003;14672;50.250;8.312;2023-01-31T05:57:57;14.00;12.00;4.00
27143;PMS1003;14672;50.250;8.312;2023-01-31T06:00:24;19.50;18.00;6.00
27143;PMS1003;14672;50.250;8.312;2023-01-31T06:02:51;15.00;15.00;5.50
27143;PMS1003;14672;50.250;8.312;2023-01-31T06:05:16;12.00;11.33;2.00
27143;PMS1003;14672;50.250;8.312;2023-01-31T06:07:42;20.00;16.00;5.50
27143;PMS1003;14672;50.250;8.312;2023-01-31T06:10:09;14.00;10.00;2.67
27143;PMS1003;14672;50.250;8.312;2023-01-31T06:12:36;10.50;10.00;2.00
27143;PMS1003;14672;50.250;8.312;2023-01-31T06:15:02;18.00;11.33;3.33
27143;PMS1003;14672;50.250;8.312;2023-01-31T06:17:28;14.00;12.00;2.00
27143;PMS1003;14672;50.250;8.312;2023-01-31T06:19:54;10.00;9.00;2.00
27143;PMS1003;14672;50.250;8.312;2023-01-31T06:22:20;12.67;12.67;2.00
27143;PMS1003;14672;50.250;8.312;2023-01-31T06:24:46;10.00;10.00;2.00
27143;PMS1003;14672;50.250;8.312;2023-01-31T06:27:12;16.00;10.00;4.00
27143;PMS1003;14672;50.250;8.312;2023-01-31T06:29:38;10.00;10.00;2.67
27143;PMS1003;14672;50.250;8.312;2023-01-31T06:32:03;11.33;10.00;2.67
27143;PMS1003;14672;50.250;8.312;2023-01-31T06:34:29;16.00;14.00;2.50
27143;PMS1003;14672;50.250;8.312;2023-01-31T06:36:55;15.33;15.33;4.00
27143;PMS1003;14672;50.250;8.312;2023-01-31T06:39:23;12.00;10.00;2.00
27143;PMS1003;14672;50.250;8.312;2023-01-31T06:41:49;12.50;12.50;4.00
27143;PMS1003;14672;50.250;8.312;2023-01-31T06:44:14;13.33;12.00;2.00
27143;PMS1003;14672;50.250;8.312;2023-01-31T06:46:40;31.33;23.33;9.33
27143;PMS1003;14672;50.250;8.312;2023-01-31T06:49:06;24.00;24.00;10.00
27143;PMS1003;14672;50.250;8.312;2023-01-31T06:51:32;50.67;48.00;23.33
27143;PMS1003;14672;50.250;8.312;2023-01-31T06:53:58;24.67;24.67;10.00
27143;PMS1003;14672;50.250;8.312;2023-01-31T06:56:24;33.33;30.67;14.00
27143;PMS1003;14672;50.250;8.312;2023-01-31T06:58:50;29.33;25.33;10.00
27143;PMS1003;14672;50.250;8.312;2023-01-31T07:01:15;15.33;15.33;6.67
27143;PMS1003;14672;50.250;8.312;2023-01-31T07:03:41;12.50;12.50;4.00
27143;PMS1003;14672;50.250;8.312;2023-01-31T07:06:09;17.00;14.50;4.50
27143;PMS1003;14672;50.250;8.312;2023-01-31T07:08:35;18.00;14.00;4.50
27143;PMS1003;14672;50.250;8.312;2023-01-31T07:11:01;16.00;15.50;4.00
27143;PMS1003;14672;50.250;8.312;2023-01-31T07:13:29;15.33;15.33;5.33
27143;PMS1003;14672;50.250;8.312;2023-01-31T07:15:55;16.50;14.50;5.00
27143;PMS1003;14672;50.250;8.312;2023-01-31T07:18:21;15.00;13.50;3.00
27143;PMS1003;14672;50.250;8.312;2023-01-31T07:20:48;16.50;14.50;4.50
27143;PMS1003;14672;50.250;8.312;2023-01-31T07:23:14;14.00;12.00;4.00
27143;PMS1003;14672;50.250;8.312;2023-01-31T07:25:40;12.67;12.67;4.00
27143;PMS1003;14672;50.250;8.312;2023-01-31T07:28:06;13.50;12.00;4.00
27143;PMS1003;14672;50.250;8.312;2023-01-31T07:30:32;20.00;15.33;6.00
27143;PMS1003;14672;50.250;8.312;2023-01-31T07:32:58;20.67;20.00;10.00
27143;PMS1003;14672;50.250;8.312;2023-01-31T07:35:24;25.00;17.00;5.50
27143;PMS1003;14672;50.250;8.312;2023-01-31T07:37:50;12.00;12.00;4.00
27143;PMS1003;14672;50.250;8.312;2023-01-31T07:40:17;23.00;19.50;8.50
27143;PMS1003;14672;50.250;8.312;2023-01-31T07:42:43;16.50;14.50;5.00
27143;PMS1003;14672;50.250;8.312;2023-01-31T07:45:13;14.67;14.00;4.00
27143;PMS1003;14672;50.250;8.312;2023-01-31T07:47:40;24.00;18.00;6.50
27143;PMS1003;14672;50.250;8.312;2023-01-31T07:50:07;22.50;22.00;7.00
27143;PMS1003;14672;50.250;8.312;2023-01-31T07:52:34;25.00;18.00;7.00
27143;PMS1003;14672;50.250;8.312;2023-01-31T07:54:59;21.33;19.33;6.67
27143;PMS1003;14672;50.250;8.312;2023-01-31T07:57:25;14.00;14.00;4.67
27143;PMS1003;14672;50.250;8.312;2023-01-31T07:59:51;16.67;12.67;4.00
27143;PMS1003;14672;50.250;8.312;2023-01-31T08:02:17;16.00;12.00;4.00
27143;PMS1003;14672;50.250;8.312;2023-01-31T08:05:01;20.50;20.00;8.00
27143;PMS1003;14672;50.250;8.312;2023-01-31T08:07:28;31.50;27.50;13.00
27143;PMS1003;14672;50.250;8.312;2023-01-31T08:09:54;18.50;18.00;8.00
27143;PMS1003;14672;50.250;8.312;2023-01-31T08:12:20;23.00;21.50;8.50
27143;PMS1003;14672;50.250;8.312;2023-01-31T08:14:46;18.00;15.50;6.00
27143;PMS1003;14672;50.250;8.312;2023-01-31T08:17:12;14.00;14.00;4.00
27143;PMS1003;14672;50.250;8.312;2023-01-31T08:19:38;19.33;18.00;5.33
27143;PMS1003;14672;50.250;8.312;2023-01-31T08:22:04;19.33;14.00;4.00
27143;PMS1003;14672;50.250;8.312;2023-01-31T08:24:30;17.33;11.33;4.00
27143;PMS1003;14672;50.250;8.312;2023-01-31T08:26:57;23.50;23.50;13.50
27143;PMS1003;14672;50.250;8.312;2023-01-31T08:29:24;21.50;17.50;7.00
27143;PMS1003;14672;50.250;8.312;2023-01-31T08:31:51;14.00;12.00;4.50
27143;PMS1003;14672;50.250;8.312;2023-01-31T08:34:17;15.00;13.00;5.50
27143;PMS1003;14672;50.250;8.312;2023-01-31T08:36:43;20.00;15.00;5.50
27143;PMS1003;14672;50.250;8.312;2023-01-31T08:39:09;22.00;18.67;6.67
27143;PMS1003;14672;50.250;8.312;2023-01-31T08:41:36;14.00;14.00;4.00
27143;PMS1003;14672;50.250;8.312;2023-01-31T08:44:03;17.00;14.50;6.00
27143;PMS1003;14672;50.250;8.312;2023-01-31T08:46:31;16.50;15.00;6.00
27143;PMS1003;14672;50.250;8.312;2023-01-31T08:49:00;16.00;16.00;4.00
27143;PMS1003;14672;50.250;8.312;2023-01-31T08:51:28;17.00;12.50;3.00
27143;PMS1003;14672;50.250;8.312;2023-01-31T08:53:54;20.50;17.00;6.00
27143;PMS1003;14672;50.250;8.312;2023-01-31T08:56:20;20.00;14.67;6.00
27143;PMS1003;14672;50.250;8.312;2023-01-31T08:58:49;18.50;18.00;7.50
27143;PMS1003;14672;50.250;8.312;2023-01-31T09:01:17;19.00;17.50;7.50
27143;PMS1003;14672;50.250;8.312;2023-01-31T09:03:44;22.00;17.00;4.00
27143;PMS1003;14672;50.250;8.312;2023-01-31T09:06:18;12.50;12.00;4.00
27143;PMS1003;14672;50.250;8.312;2023-01-31T09:08:46;13.50;13.50;4.00
27143;PMS1003;14672;50.250;8.312;2023-01-31T09:11:12;14.67;12.00;4.67
27143;PMS1003;14672;50.250;8.312;2023-01-31T09:13:41;17.00;16.50;5.50
27143;PMS1003;14672;50.250;8.312;2023-01-31T09:16:08;16.00;12.50;4.00
27143;PMS1003;14672;50.250;8.312;2023-01-31T09:18:36;11.00;10.25;4.00
27143;PMS1003;14672;50.250;8.312;2023-01-31T09:21:08;18.75;18.25;5.75
27143;PMS1003;14672;50.250;8.312;2023-01-31T09:23:38;19.00;17.25;6.75
27143;PMS1003;14672;50.250;8.312;2023-01-31T09:26:05;21.75;15.75;5.75
27143;PMS1003;14672;50.250;8.312;2023-01-31T09:28:31;12.25;11.75;4.50
27143;PMS1003;14672;50.250;8.312;2023-01-31T09:31:02;18.25;14.25;2.75
27143;PMS1003;14672;50.250;8.312;2023-01-31T09:33:33;16.75;13.25;5.75
27143;PMS1003;14672;50.250;8.312;2023-01-31T09:36:10;14.75;12.25;5.25
27143;PMS1003;14672;50.250;8.312;2023-01-31T09:38:38;16.75;14.00;3.75
27143;PMS1003;14672;50.250;8.312;2023-01-31T09:43:50;15.25;13.50;5.00
27143;PMS1003;14672;50.250;8.312;2023-01-31T09:46:24;17.25;15.75;5.75
27143;PMS1003;14672;50.250;8.312;2023-01-31T09:48:59;17.50;16.75;4.25
27143;PMS1003;14672;50.250;8.312;2023-01-31T09:51:31;15.75;13.75;3.75
27143;PMS1003;14672;50.250;8.312;2023-01-31T09:53:59;21.25;20.25;6.50
27143;PMS1003;14672;50.250;8.312;2023-01-31T09:56:40;17.75;15.25;3.75
27143;PMS1003;14672;50.250;8.312;2023-01-31T09:59:46;11.75;11.75;3.00
27143;PMS1003;14672;50.250;8.312;2023-01-31T10:02:37;20.00;17.00;6.00
27143;PMS1003;14672;50.250;8.312;2023-01-31T10:08:56;13.50;13.00;4.00
27143;PMS1003;14672;50.250;8.312;2023-01-31T10:14:24;16.00;14.00;6.00
27143;PMS1003;14672;50.250;8.312;2023-01-31T10:17:10;21.50;14.50;4.50
27143;PMS1003;14672;50.250;8.312;2023-01-31T10:19:56;17.00;14.00;5.50
27143;PMS1003;14672;50.250;8.312;2023-01-31T10:28:03;13.00;12.50;4.00
27143;PMS1003;14672;50.250;8.312;2023-01-31T10:30:59;19.25;13.25;5.75
27143;PMS1003;14672;50.250;8.312;2023-01-31T10:38:57;18.75;15.25;4.75
27143;PMS1003;14672;50.250;8.312;2023-01-31T10:47:46;12.50;12.00;4.00
27143;PMS1003;14672;50.250;8.312;2023-01-31T10:50:21;20.75;19.75;6.75
27143;PMS1003;14672;50.250;8.312;2023-01-31T10:56:27;48.50;41.50;21.50
27143;PMS1003;14672;50.250;8.312;2023-01-31T10:59:45;30.50;27.50;11.50
27143;PMS1003;14672;50.250;8.312;2023-01-31T11:02:02;18.00;18.00;8.00
27143;PMS1003;14672;50.250;8.312;2023-01-31T11:04:39;24.50;20.50;8.25
27143;PMS1003;14672;50.250;8.312;2023-01-31T11:07:06;15.75;15.75;6.50
27143;PMS1003;14672;50.250;8.312;2023-01-31T11:09:37;18.75;17.25;8.75
27143;PMS1003;14672;50.250;8.312;2023-01-31T11:12:10;16.75;15.75;6.75
27143;PMS1003;14672;50.250;8.312;2023-01-31T11:14:36;24.33;21.00;8.33
27143;PMS1003;14672;50.250;8.312;2023-01-31T11:17:08;17.75;14.25;4.00
27143;PMS1003;14672;50.250;8.312;2023-01-31T11:19:48;16.00;14.50;5.75
27143;PMS1003;14672;50.250;8.312;2023-01-31T11:22:22;16.75;15.25;4.25
27143;PMS1003;14672;50.250;8.312;2023-01-31T11:24:57;17.50;15.50;5.25
27143;PMS1003;14672;50.250;8.312;2023-01-31T11:27:32;19.25;17.75;9.25
27143;PMS1003;14672;50.250;8.312;2023-01-31T11:30:05;17.25;14.25;5.75
27143;PMS1003;14672;50.250;8.312;2023-01-31T11:32:45;22.75;19.75;9.75
27143;PMS1003;14672;50.250;8.312;2023-01-31T11:37:48;15.00;15.00;6.00
27143;PMS1003;14672;50.250;8.312;2023-01-31T11:40:19;19.00;17.00;6.25
27143;PMS1003;14672;50.250;8.312;2023-01-31T11:42:55;38.75;24.25;9.75
27143;PMS1003;14672;50.250;8.312;2023-01-31T11:45:28;14.25;14.25;7.50
27143;PMS1003;14672;50.250;8.312;2023-01-31T11:48:04;16.75;16.25;7.50
27143;PMS1003;14672;50.250;8.312;2023-01-31T11:50:38;16.25;15.25;6.50
27143;PMS1003;14672;50.250;8.312;2023-01-31T11:53:42;21.75;19.75;7.75
27143;PMS1003;14672;50.250;8.312;2023-01-31T11:56:21;25.50;19.00;7.00
27143;PMS1003;14672;50.250;8.312;2023-01-31T11:58:53;17.00;15.00;6.25
27143;PMS1003;14672;50.250;8.312;2023-01-31T12:01:23;16.50;15.00;6.25
27143;PMS1003;14672;50.250;8.312;2023-01-31T12:03:51;16.25;14.75;5.00
27143;PMS1003;14672;50.250;8.312;2023-01-31T12:06:39;15.25;14.75;6.25
27143;PMS1003;14672;50.250;8.312;2023-01-31T12:09:19;14.50;14.50;5.00
27143;PMS1003;14672;50.250;8.312;2023-01-31T12:11:50;14.75;14.75;5.75
27143;PMS1003;14672;50.250;8.312;2023-01-31T12:14:36;22.50;17.00;6.00
27143;PMS1003;14672;50.250;8.312;2023-01-31T12:17:05;16.25;12.75;5.25
27143;PMS1003;14672;50.250;8.312;2023-01-31T12:36:52;16.00;13.50;4.50
27143;PMS1003;14672;50.250;8.312;2023-01-31T13:06:17;22.00;14.00;5.50
27143;PMS1003;14672;50.250;8.312;2023-01-31T13:08:51;13.25;11.25;3.75
27143;PMS1003;14672;50.250;8.312;2023-01-31T13:11:26;16.75;15.75;3.75
27143;PMS1003;14672;50.250;8.312;2023-01-31T13:14:16;13.50;12.25;4.25
27143;PMS1003;14672;50.250;8.312;2023-01-31T13:16:48;21.25;18.25;8.25
27143;PMS1003;14672;50.250;8.312;2023-01-31T13:27:58;15.75;15.75;6.25
27143;PMS1003;14672;50.250;8.312;2023-01-31T13:30:38;21.25;15.00;4.00
27143;PMS1003;14672;50.250;8.312;2023-01-31T13:36:26;20.75;17.00;6.25
27143;PMS1003;14672;50.250;8.312;2023-01-31T13:38:59;16.25;14.25;7.75
27143;PMS1003;14672;50.250;8.312;2023-01-31T13:41:38;25.50;18.25;5.75
27143;PMS1003;14672;50.250;8.312;2023-01-31T13:44:04;24.00;16.00;5.75
27143;PMS1003;14672;50.250;8.312;2023-01-31T13:49:26;15.75;13.75;4.25
27143;PMS1003;14672;50.250;8.312;2023-01-31T13:52:08;23.75;20.75;7.75
27143;PMS1003;14672;50.250;8.312;2023-01-31T13:54:47;17.25;14.75;5.75
27143;PMS1003;14672;50.250;8.312;2023-01-31T13:57:51;16.50;14.25;5.75
27143;PMS1003;14672;50.250;8.312;2023-01-31T14:00:40;17.25;15.75;6.25
27143;PMS1003;14672;50.250;8.312;2023-01-31T14:03:18;18.00;16.00;7.75
27143;PMS1003;14672;50.250;8.312;2023-01-31T14:05:49;17.00;17.00;6.50
27143;PMS1003;14672;50.250;8.312;2023-01-31T14:08:40;17.25;15.75;8.25
27143;PMS1003;14672;50.250;8.312;2023-01-31T14:16:35;19.25;14.25;3.75
27143;PMS1003;14672;50.250;8.312;2023-01-31T14:38:16;13.75;13.75;4.25
27143;PMS1003;14672;50.250;8.312;2023-01-31T14:46:43;19.75;15.75;5.25
27143;PMS1003;14672;50.250;8.312;2023-01-31T14:49:52;17.25;15.25;7.25
27143;PMS1003;14672;50.250;8.312;2023-01-31T14:58:00;13.75;13.25;5.50
27143;PMS1003;14672;50.250;8.312;2023-01-31T15:00:34;13.25;13.25;3.75
27143;PMS1003;14672;50.250;8.312;2023-01-31T15:03:06;20.75;16.75;5.00
27143;PMS1003;14672;50.250;8.312;2023-01-31T15:05:42;14.25;14.25;6.25
27143;PMS1003;14672;50.250;8.312;2023-01-31T15:13:52;19.00;19.00;6.75
27143;PMS1003;14672;50.250;8.312;2023-01-31T15:16:29;12.25;11.25;3.25
27143;PMS1003;14672;50.250;8.312;2023-01-31T15:19:11;11.00;11.00;4.50
27143;PMS1003;14672;50.250;8.312;2023-01-31T15:24:26;13.00;13.00;3.75
27143;PMS1003;14672;50.250;8.312;2023-01-31T15:27:17;16.50;13.25;3.25
27143;PMS1003;14672;50.250;8.312;2023-01-31T15:32:39;10.75;10.75;3.00
27143;PMS1003;14672;50.250;8.312;2023-01-31T15:35:22;12.00;11.00;2.50
27143;PMS1003;14672;50.250;8.312;2023-01-31T15:38:05;10.75;10.25;3.75
27143;PMS1003;14672;50.250;8.312;2023-01-31T15:43:47;13.50;12.50;4.50
27143;PMS1003;14672;50.250;8.312;2023-01-31T15:46:31;11.00;11.00;3.00
27143;PMS1003;14672;50.250;8.312;2023-01-31T15:48:59;14.50;13.75;4.75
27143;PMS1003;14672;50.250;8.312;2023-01-31T15:51:26;13.00;13.00;4.75
27143;PMS1003;14672;50.250;8.312;2023-01-31T15:54:04;13.00;13.00;6.75
27143;PMS1003;14672;50.250;8.312;2023-01-31T15:56:31;11.75;10.25;1.50
27143;PMS1003;14672;50.250;8.312;2023-01-31T15:59:05;8.50;8.50;3.00
27143;PMS1003;14672;50.250;8.312;2023-01-31T16:01:37;10.75;9.25;1.00
27143;PMS1003;14672;50.250;8.312;2023-01-31T16:04:04;9.75;9.75;1.25
27143;PMS1003;14672;50.250;8.312;2023-01-31T16:06:31;9.00;9.00;2.50
27143;PMS1003;14672;50.250;8.312;2023-01-31T16:09:01;9.75;9.75;2.75
27143;PMS1003;14672;50.250;8.312;2023-01-31T16:11:30;10.25;9.00;2.25
27143;PMS1003;14672;50.250;8.312;2023-01-31T16:14:00;8.00;8.00;2.00
27143;PMS1003;14672;50.250;8.312;2023-01-31T16:16:34;11.25;9.00;1.75
27143;PMS1003;14672;50.250;8.312;2023-01-31T16:19:01;7.75;7.75;1.00
27143;PMS1003;14672;50.250;8.312;2023-01-31T16:26:36;16.75;13.25;1.00
27143;PMS1003;14672;50.250;8.312;2023-01-31T16:29:15;14.75;12.50;2.75
27143;PMS1003;14672;50.250;8.312;2023-01-31T16:31:51;8.75;8.50;1.25
27143;PMS1003;14672;50.250;8.312;2023-01-31T16:34:24;11.25;11.25;5.00
27143;PMS1003;14672;50.250;8.312;2023-01-31T16:36:55;13.50;13.50;5.00
27143;PMS1003;14672;50.250;8.312;2023-01-31T16:39:36;11.00;11.00;4.50
27143;PMS1003;14672;50.250;8.312;2023-01-31T16:44:45;11.00;11.00;3.25
27143;PMS1003;14672;50.250;8.312;2023-01-31T16:52:41;9.25;8.75;1.00
27143;PMS1003;14672;50.250;8.312;2023-01-31T16:55:13;13.00;11.25;3.25
27143;PMS1003;14672;50.250;8.312;2023-01-31T16:57:45;12.75;12.75;7.00
27143;PMS1003;14672;50.250;8.312;2023-01-31T17:02:55;9.00;9.00;1.00
27143;PMS1003;14672;50.250;8.312;2023-01-31T17:12:50;9.00;9.00;2.50
27143;PMS1003;14672;50.250;8.312;2023-01-31T17:15:26;7.50;7.50;1.75
27143;PMS1003;14672;50.250;8.312;2023-01-31T17:17:52;13.00;13.00;5.00
27143;PMS1003;14672;50.250;8.312;2023-01-31T17:20:39;7.25;7.25;1.75
27143;PMS1003;14672;50.250;8.312;2023-01-31T17:23:26;5.50;5.50;1.00
27143;PMS1003;14672;50.250;8.312;2023-01-31T17:26:13;9.00;9.00;2.50
27143;PMS1003;14672;50.250;8.312;2023-01-31T17:29:01;10.50;10.50;4.00
27143;PMS1003;14672;50.250;8.312;2023-01-31T17:31:46;10.25;10.25;2.50
27143;PMS1003;14672;50.250;8.312;2023-01-31T17:34:33;12.50;11.00;3.00
27143;PMS1003;14672;50.250;8.312;2023-01-31T17:37:18;6.75;6.50;1.75
27143;PMS1003;14672;50.250;8.312;2023-01-31T17:40:03;9.75;9.75;3.00
27143;PMS1003;14672;50.250;8.312;2023-01-31T17:42:52;7.50;7.50;1.25
27143;PMS1003;14672;50.250;8.312;2023-01-31T17:45:42;11.00;11.00;4.50
27143;PMS1003;14672;50.250;8.312;2023-01-31T17:48:27;7.25;7.25;1.00
27143;PMS1003;14672;50.250;8.312;2023-01-31T17:51:13;11.00;9.00;2.00